Lauderhill, Florida
Current Conditions -  °F | °C
As of 10:53 AM on Wednesday 28 Jan 2015 (Local Time) from KFXE Reporting Station
Clear Clear  
Wind Chill: 62°   Ceiling: Unl
Heat Index: 62°   Visibility: 10mi
Dew Point: 34°   Wind: 9mph
Humidity: 35%   Direction: 330°NNW
Pressure: 30.18"   Gusts: 18mph
Location:  26.2125°N, 80.2701°W
Report Text: KFXE 281553Z 33008G16KT 300V360 10SM CLR 17/01 A3018 RMK AO2 SLP223 T01670011
Loading
Personal Weather Stations






























Interactive Weather Map New forecast layout! Learn more

10-Day Weather Forecast

Advertisements
Track Severe Weather on mobile